NMSU Main Campus

Dec. 14, 2019, 5:10 p.m.

  • imperial
Air Temperature RH Dewpoint Wind Chill Heat Index Wind Speed Wind Direction Precipitation Solar Radiation Soil Temperature
Date Time Max Mean Mean Total Total
US/Mountain F % F F F MPH MPH MPH deg. deg. in. MJ/m^2 F
2019-12-13 17:10 63.25 34.42 34.71 63.25 63.25 1.88 2.59 1.97 14.3 128.1 0.0 0.001 55.26
2019-12-13 17:15 63.25 34.92 35.07 63.25 63.25 1.34 3.49 2.08 24.2 146.9 0.0 0.001 55.27
2019-12-13 17:20 62.65 36.24 35.48 62.65 62.65 1.88 2.06 1.48 14.5 130.1 0.0 0.0 55.29
2019-12-13 17:25 62.29 39.86 37.57 62.29 62.29 0.0 2.06 1.21 15.2 138.8 0.0 0.0 55.27
2019-12-13 17:30 61.52 40.26 37.13 61.52 61.52 0.0 0.98 0.16 1.1 63.4 0.0 0.0 55.27
2019-12-13 17:35 60.78 41.72 37.37 60.78 60.78 1.16 1.34 0.63 16.8 195.0 0.0 0.0 55.26
2019-12-13 17:40 60.44 44.22 38.55 60.44 60.44 0.0 1.16 0.45 17.1 175.8 0.0 0.0 55.26
2019-12-13 17:45 59.7 45.13 38.4 59.7 59.7 2.24 2.59 1.3 49.0 152.7 0.0 0.0 55.24
2019-12-13 17:50 59.7 40.88 35.88 59.7 59.7 2.06 3.67 2.66 9.4 118.5 0.0 0.0 55.2
2019-12-13 17:55 59.52 45.23 38.29 59.52 59.52 1.34 2.24 1.43 16.7 120.3 0.0 0.0 55.18
2019-12-13 18:00 58.98 44.22 37.22 58.98 58.98 1.52 1.88 0.94 18.6 130.7 0.0 0.0 55.15
2019-12-13 18:05 58.98 44.49 37.38 58.98 58.98 2.42 2.59 1.77 26.1 155.5 0.0 0.0 55.13
2019-12-13 18:10 58.57 46.18 37.95 58.57 58.57 0.0 2.42 1.54 26.8 216.1 0.0 0.0 55.11
2019-12-13 18:15 58.21 46.96 38.05 58.21 58.21 1.88 3.67 1.34 29.2 146.1 0.0 0.0 55.06
2019-12-13 18:20 58.33 46.02 37.65 58.33 58.33 0.0 2.42 1.23 52.7 157.6 0.0 0.0 55.0
2019-12-13 18:25 57.85 45.0 36.63 57.85 57.85 2.06 2.06 1.19 17.0 116.9 0.0 0.0 54.99
2019-12-13 18:30 57.42 45.61 36.58 57.42 57.42 0.81 2.24 1.03 16.2 119.2 0.0 0.0 54.91
2019-12-13 18:35 57.18 44.06 35.5 57.18 57.18 1.7 1.88 0.81 41.4 18.6 0.0 0.0 54.88
2019-12-13 18:40 56.88 43.02 34.62 56.88 56.88 2.06 2.06 1.41 38.7 24.2 0.0 0.0 54.84
2019-12-13 18:45 57.25 43.39 35.17 57.25 57.25 0.98 3.13 2.1 44.9 73.7 0.0 0.0 54.79
2019-12-13 18:50 57.31 41.67 34.21 57.31 57.31 2.95 2.95 0.56 19.0 145.9 0.0 0.0 54.75
2019-12-13 18:55 60.53 32.72 31.06 60.53 60.53 2.06 7.25 3.49 56.7 230.7 0.0 0.0 54.7
2019-12-13 19:00 60.76 33.29 31.69 60.76 60.76 2.77 4.56 3.04 38.0 207.6 0.0 0.0 54.66
2019-12-13 19:05 60.17 34.1 31.76 60.17 60.17 2.95 4.92 2.91 32.3 237.1 0.0 0.0 54.61
2019-12-13 19:10 59.38 34.85 31.6 59.38 59.38 1.88 5.82 3.4 28.5 277.7 0.0 0.0 54.55
2019-12-13 19:15 59.2 35.25 31.73 59.2 59.2 0.98 6.53 3.67 24.4 257.3 0.0 0.0 54.5
2019-12-13 19:20 58.82 35.86 31.82 58.82 58.82 2.77 5.28 2.68 27.4 276.2 0.0 0.0 54.45
2019-12-13 19:25 58.1 37.04 31.98 58.1 58.1 2.24 6.17 3.13 27.2 277.6 0.0 0.0 54.41
2019-12-13 19:30 57.43 37.62 31.77 57.43 57.43 4.74 4.74 2.82 31.3 256.2 0.0 0.0 54.32
2019-12-13 19:35 57.31 37.75 31.74 57.31 57.31 3.49 6.53 4.38 17.4 252.7 0.0 0.0 54.27
2019-12-13 19:40 57.43 38.26 32.19 57.43 57.43 3.67 6.53 3.31 27.9 267.6 0.0 0.0 54.21
2019-12-13 19:45 56.82 38.6 31.86 56.82 56.82 2.95 4.03 2.73 21.9 271.0 0.0 0.0 54.16
2019-12-13 19:50 56.1 40.38 32.34 56.1 56.1 2.42 4.38 3.06 14.4 292.8 0.0 0.0 54.1
2019-12-13 19:55 55.72 41.23 32.51 55.72 55.72 1.88 2.95 2.37 27.0 301.0 0.0 0.0 54.03
2019-12-13 20:00 55.31 40.59 31.75 55.31 55.31 2.95 2.95 2.48 18.9 331.0 0.0 0.0 53.98
2019-12-13 20:05 55.31 40.72 31.83 55.31 55.31 2.42 3.31 2.57 16.7 358.4 0.0 0.0 53.91
2019-12-13 20:10 55.44 44.2 33.99 55.44 55.44 2.77 2.77 2.21 20.0 3.4 0.0 0.0 53.85
2019-12-13 20:15 55.08 43.33 33.16 55.08 55.08 1.34 2.59 1.86 17.5 333.6 0.0 0.0 53.82
2019-12-13 20:20 54.72 42.48 32.34 54.72 54.72 2.06 3.49 2.46 15.5 338.3 0.0 0.0 53.74
2019-12-13 20:25 54.41 42.72 32.21 54.41 54.41 1.88 2.95 1.88 13.3 314.4 0.0 0.0 53.69
2019-12-13 20:30 54.28 42.86 32.17 54.28 54.28 1.52 1.88 1.34 23.5 316.3 0.0 0.0 53.64
2019-12-13 20:35 54.46 43.63 32.78 54.46 54.46 0.98 1.7 1.01 19.4 323.1 0.0 0.0 53.58
2019-12-13 20:40 54.05 43.91 32.56 54.05 54.05 0.81 2.06 1.48 20.9 56.5 0.0 0.0 53.51
2019-12-13 20:45 53.87 44.04 32.47 53.87 53.87 0.0 1.34 0.98 14.4 90.1 0.0 0.0 53.46
2019-12-13 20:50 53.38 45.63 32.91 53.38 53.38 1.16 1.88 0.81 10.3 37.1 0.0 0.0 53.38
2019-12-13 20:55 53.02 45.97 32.77 53.02 53.02 0.81 1.34 0.6 16.3 63.3 0.0 0.0 53.33
2019-12-13 21:00 52.23 50.67 34.48 52.23 52.23 1.16 1.7 1.23 23.6 133.8 0.0 0.0 53.28
2019-12-13 21:05 51.03 53.88 34.9 51.03 51.03 1.52 2.06 1.36 5.5 169.0 0.0 0.0 53.2
2019-12-13 21:10 50.54 54.62 34.79 50.54 50.54 1.34 1.34 0.38 8.4 157.8 0.0 0.0 53.15
2019-12-13 21:15 49.75 57.46 35.33 49.75 49.75 0.0 1.52 0.58 4.3 142.0 0.0 0.0 53.1
2019-12-13 21:20 49.14 58.57 35.24 49.14 49.14 0.0 0.81 0.16 16.7 213.8 0.0 0.0 53.02
2019-12-13 21:25 48.16 59.18 34.58 48.16 48.16 0.0 1.16 0.11 0.2 252.6 0.0 0.0 52.97
2019-12-13 21:30 48.16 58.74 34.4 48.16 48.16 0.0 1.52 0.76 22.9 30.9 0.0 0.0 52.9
2019-12-13 21:35 49.51 55.17 34.09 49.51 49.51 2.42 2.42 1.54 25.6 101.1 0.0 0.0 52.86
2019-12-13 21:40 48.9 57.13 34.39 48.9 48.9 0.0 2.77 1.16 14.4 197.4 0.0 0.0 52.79
2019-12-13 21:45 48.6 60.0 35.34 48.6 48.6 0.0 1.16 0.27 2.9 81.1 0.0 0.0 52.72
2019-12-13 21:50 47.98 59.29 34.46 47.98 47.98 0.0 0.81 0.09 0.0 75.5 0.0 0.0 52.66
2019-12-13 21:55 47.93 59.32 34.42 47.93 47.93 1.34 1.34 0.54 53.7 92.9 0.0 0.0 52.61
2019-12-13 22:00 47.7 59.39 34.23 47.7 47.7 0.0 1.16 0.13 2.1 295.1 0.0 0.0 52.54
2019-12-13 22:05 47.57 59.66 34.23 47.57 47.57 0.81 0.81 0.04 25.9 212.3 0.0 0.0 52.47
2019-12-13 22:10 47.39 61.22 34.7 47.39 47.39 1.16 1.88 0.76 19.0 142.1 0.0 0.0 52.41
2019-12-13 22:15 46.83 63.01 34.9 46.83 46.83 0.0 1.34 0.29 23.3 144.6 0.0 0.0 52.36
2019-12-13 22:20 46.6 65.14 35.52 46.6 46.6 1.16 1.34 0.51 26.1 187.9 0.0 0.0 52.3
2019-12-13 22:25 45.93 67.23 35.68 45.93 45.93 1.7 1.88 0.83 12.1 204.9 0.0 0.0 52.23
2019-12-13 22:30 46.04 66.11 35.36 46.04 46.04 0.81 2.06 1.34 26.9 164.1 0.0 0.0 52.2
2019-12-13 22:35 46.17 64.59 34.89 46.17 46.17 2.95 2.95 1.21 33.5 164.7 0.0 0.0 52.12
2019-12-13 22:40 46.96 63.68 35.29 46.96 46.96 1.88 3.13 2.13 20.7 182.9 0.0 0.0 52.07
2019-12-13 22:45 46.65 65.24 35.61 46.65 46.65 1.7 2.06 1.59 20.4 164.9 0.0 0.0 52.02
2019-12-13 22:50 46.24 67.7 36.15 46.24 46.24 0.0 1.88 0.63 13.9 143.0 0.0 0.0 51.96
2019-12-13 22:55 45.86 68.58 36.11 45.86 45.86 0.0 0.0 0.0 0.0 0.0 0.0 0.0 51.89
2019-12-13 23:00 45.32 68.85 35.69 45.32 45.32 0.0 1.16 0.25 1.2 212.0 0.0 0.0 51.84
2019-12-13 23:05 44.96 70.75 36.04 44.96 44.96 0.0 0.0 0.0 0.0 0.0 0.0 0.0 51.76
2019-12-13 23:10 44.53 70.95 35.69 44.53 44.53 0.0 0.0 0.0 0.0 0.0 0.0 0.0 51.69
2019-12-13 23:15 44.65 70.45 35.63 44.65 44.65 0.0 0.81 0.09 0.5 193.3 0.0 0.0 51.66
2019-12-13 23:20 44.6 71.46 35.94 44.6 44.6 0.0 0.0 0.0 0.0 0.0 0.0 0.0 51.58
2019-12-13 23:25 44.55 71.44 35.88 44.55 44.55 0.0 0.81 0.02 0.0 75.4 0.0 0.0 51.53
2019-12-13 23:30 44.55 70.08 35.4 44.55 44.55 0.0 0.0 0.0 0.0 0.0 0.0 0.0 51.48
2019-12-13 23:35 45.28 68.09 35.38 45.28 45.28 0.0 1.88 0.89 6.2 63.1 0.0 0.0 51.4
2019-12-13 23:40 45.41 67.62 35.32 45.41 45.41 0.81 2.06 0.49 6.3 138.3 0.0 0.0 51.35
2019-12-13 23:45 44.8 69.96 35.6 44.8 44.8 2.77 3.67 1.57 8.2 189.8 0.0 0.0 51.3
2019-12-13 23:50 44.55 70.36 35.5 44.55 44.55 1.52 3.13 2.35 15.2 189.6 0.0 0.0 51.24
2019-12-13 23:55 44.01 72.15 35.61 44.01 44.01 0.0 1.34 0.54 10.7 204.7 0.0 0.0 51.19
2019-12-14 00:00 44.01 72.22 35.64 44.01 44.01 0.0 0.98 0.16 0.1 71.2 0.0 0.0 51.12
2019-12-14 00:05 44.06 71.07 35.28 44.06 44.06 0.81 0.81 0.09 16.5 111.6 0.0 0.0 51.08
2019-12-14 00:10 43.95 71.44 35.31 43.95 43.95 1.52 1.52 1.07 30.7 188.6 0.0 0.0 51.01
2019-12-14 00:15 43.7 72.69 35.51 43.7 43.7 0.0 1.7 0.51 26.5 215.1 0.0 0.0 50.95
2019-12-14 00:20 43.39 72.86 35.27 43.39 43.39 0.0 0.0 0.0 0.0 0.0 0.0 0.0 50.9
2019-12-14 00:25 43.52 72.96 35.43 43.52 43.52 0.0 1.16 0.38 6.0 39.1 0.0 0.0 50.85
2019-12-14 00:30 43.65 73.88 35.86 43.65 43.65 0.0 0.0 0.0 0.0 0.0 0.0 0.0 50.77
2019-12-14 00:35 43.16 74.38 35.56 43.16 43.16 0.0 0.0 0.0 0.0 0.0 0.0 0.0 50.74
2019-12-14 00:40 43.34 74.15 35.66 43.34 43.34 0.0 1.34 0.43 5.3 188.5 0.0 0.0 50.67
2019-12-14 00:45 43.16 75.33 35.88 43.16 43.16 1.7 2.06 1.57 17.5 150.2 0.0 0.0 50.61
2019-12-14 00:50 42.91 75.84 35.81 42.91 42.91 1.16 2.06 1.3 27.5 173.2 0.0 0.0 50.58
2019-12-14 00:55 42.91 75.33 35.64 42.91 42.91 1.7 2.77 1.72 22.6 170.3 0.0 0.0 50.54
2019-12-14 01:00 43.03 75.63 35.86 43.03 43.03 0.0 2.06 1.19 23.2 153.5 0.0 0.0 50.47
2019-12-14 01:05 42.98 75.9 35.9 42.98 42.98 0.0 1.7 1.1 11.5 214.1 0.0 0.0 50.41
2019-12-14 01:10 42.49 76.99 35.79 42.49 42.49 0.98 1.52 0.63 58.9 296.9 0.0 0.0 50.36
2019-12-14 01:15 42.55 76.24 35.6 42.55 42.55 0.0 0.98 0.09 2.1 322.3 0.0 0.0 50.31
2019-12-14 01:20 42.6 75.84 35.52 42.6 42.6 1.16 1.16 0.25 2.9 192.2 0.0 0.0 50.25
2019-12-14 01:25 42.85 75.6 35.68 42.85 42.85 1.16 1.16 0.18 17.1 158.7 0.0 0.0 50.2
2019-12-14 01:30 42.42 76.51 35.56 42.42 42.42 0.0 1.7 0.94 12.0 198.2 0.0 0.0 50.14
2019-12-14 01:35 42.42 77.93 36.03 42.42 42.42 0.0 0.0 0.0 0.0 0.0 0.0 0.0 50.09
2019-12-14 01:40 42.3 76.65 35.49 42.3 42.3 0.0 0.81 0.04 1.4 238.6 0.0 0.0 50.04
2019-12-14 01:45 42.6 76.04 35.58 42.6 42.6 0.81 2.59 1.59 25.4 171.0 0.0 0.0 49.98
2019-12-14 01:50 42.6 76.61 35.77 42.6 42.6 0.0 1.7 0.65 9.5 178.9 0.0 0.0 49.95
2019-12-14 01:55 42.01 77.8 35.58 42.01 42.01 1.7 2.06 0.87 10.4 201.4 0.0 0.0 49.89
2019-12-14 02:00 41.94 78.17 35.63 41.94 41.94 0.0 2.24 0.76 7.5 171.3 0.0 0.0 49.84
2019-12-14 02:05 42.06 77.22 35.45 42.06 42.06 2.77 3.67 2.55 26.4 187.7 0.0 0.0 49.78
2019-12-14 02:10 42.6 75.53 35.41 42.6 42.6 2.77 3.31 2.53 24.9 156.3 0.0 0.0 49.73
2019-12-14 02:15 42.19 77.87 35.78 42.19 42.19 2.24 3.31 2.19 16.5 199.7 0.0 0.0 49.68
2019-12-14 02:20 41.45 78.34 35.21 41.45 41.45 1.88 2.06 1.57 28.3 156.3 0.0 0.0 49.62
2019-12-14 02:25 41.16 79.73 35.38 41.16 41.16 0.0 1.88 0.81 37.0 148.4 0.0 0.0 49.57
2019-12-14 02:30 41.04 80.1 35.37 41.04 41.04 1.52 1.52 0.4 20.7 100.2 0.0 0.0 49.53
2019-12-14 02:35 41.52 78.75 35.42 41.52 41.52 2.24 2.95 1.92 58.3 179.0 0.0 0.0 49.46
2019-12-14 02:40 41.52 77.6 35.05 41.52 41.52 2.42 3.31 2.01 27.7 230.5 0.0 0.0 49.42
2019-12-14 02:45 41.95 75.67 34.83 41.95 41.95 1.88 3.49 2.44 14.8 215.5 0.0 0.0 49.37
2019-12-14 02:50 42.13 75.74 35.03 42.13 42.13 1.7 2.77 1.79 12.3 228.5 0.0 0.0 49.32
2019-12-14 02:55 41.7 77.06 35.04 41.7 41.7 0.0 3.31 2.13 12.2 199.9 0.0 0.0 49.26
2019-12-14 03:00 41.04 78.38 34.82 41.04 41.04 0.0 1.52 0.67 8.0 211.9 0.0 0.0 49.23
2019-12-14 03:05 40.55 79.9 34.83 40.55 40.55 2.06 2.06 0.4 12.9 164.6 0.0 0.0 49.17
2019-12-14 03:10 40.6 80.6 35.11 40.6 40.6 0.81 2.42 1.74 9.6 196.3 0.0 0.0 49.12
2019-12-14 03:15 40.3 80.9 34.9 40.3 40.3 0.0 1.34 0.27 5.6 197.4 0.0 0.0 49.08
2019-12-14 03:20 40.24 81.7 35.1 40.24 40.24 1.52 1.52 0.38 12.5 196.2 0.0 0.0 49.03
2019-12-14 03:25 40.19 81.0 34.83 40.19 40.19 2.24 2.24 1.88 9.6 193.6 0.0 0.0 48.97
2019-12-14 03:30 40.5 80.3 34.91 40.5 40.5 1.52 2.42 1.61 7.7 191.4 0.0 0.0 48.94
2019-12-14 03:35 40.5 80.8 35.06 40.5 40.5 2.06 2.06 1.63 11.6 182.0 0.0 0.0 48.88
2019-12-14 03:40 40.12 81.2 34.82 40.12 40.12 0.81 2.59 1.74 7.0 193.7 0.0 0.0 48.83
2019-12-14 03:45 40.12 81.5 34.91 40.12 40.12 0.81 1.52 1.16 11.4 190.2 0.0 0.0 48.81
2019-12-14 03:50 40.19 80.7 34.73 40.19 40.19 2.24 3.31 1.45 8.6 196.2 0.0 0.0 48.74
2019-12-14 03:55 40.19 81.4 34.95 40.19 40.19 1.7 2.77 1.79 32.0 187.5 0.0 0.0 48.7
2019-12-14 04:00 39.52 82.4 34.61 39.52 39.52 0.81 1.88 0.74 32.0 203.3 0.0 0.0 48.67
2019-12-14 04:05 39.34 83.6 34.79 39.34 39.34 0.81 2.06 1.1 30.6 248.5 0.0 0.0 48.6
2019-12-14 04:10 39.34 83.3 34.7 39.34 39.34 2.42 2.59 1.66 15.9 217.8 0.0 0.0 48.56
2019-12-14 04:15 39.51 82.3 34.56 39.51 39.51 1.52 3.13 2.55 13.2 209.2 0.0 0.0 48.51
2019-12-14 04:20 39.58 81.9 34.51 39.58 39.58 0.0 1.88 0.87 11.2 215.7 0.0 0.0 48.47
2019-12-14 04:25 39.27 83.2 34.6 39.27 39.27 1.34 2.42 1.5 16.0 212.5 0.0 0.0 48.42
2019-12-14 04:30 39.27 83.9 34.81 39.27 39.27 2.24 2.42 1.7 36.3 223.4 0.0 0.0 48.38
2019-12-14 04:35 39.4 83.4 34.79 39.4 39.4 1.52 2.59 1.95 9.2 204.4 0.0 0.0 48.33
2019-12-14 04:40 39.02 84.1 34.63 39.02 39.02 1.7 3.31 2.08 19.1 211.7 0.0 0.0 48.27
2019-12-14 04:45 39.22 85.2 35.15 39.22 39.22 1.52 2.59 2.01 20.4 207.0 0.0 0.0 48.24
2019-12-14 04:50 39.09 85.3 35.05 39.09 39.09 0.98 1.88 1.52 14.0 182.9 0.0 0.0 48.18
2019-12-14 04:55 38.79 86.2 35.02 38.79 38.79 0.0 0.98 0.2 10.1 99.5 0.0 0.0 48.13
2019-12-14 05:00 38.68 86.7 35.06 38.68 38.68 0.81 3.49 1.61 32.6 183.8 0.0 0.0 48.09
2019-12-14 05:05 38.79 86.6 35.13 38.79 38.79 0.81 2.42 1.34 20.5 164.7 0.0 0.0 48.04
2019-12-14 05:10 38.98 85.8 35.09 38.98 38.98 1.52 1.52 0.69 25.0 181.8 0.0 0.0 48.0
2019-12-14 05:15 39.16 85.1 35.07 39.16 39.16 1.16 2.24 1.63 24.2 192.6 0.0 0.0 47.95
2019-12-14 05:20 39.42 84.5 35.13 39.42 39.42 1.52 2.59 1.66 18.1 190.9 0.0 0.0 47.91
2019-12-14 05:25 39.47 83.0 34.74 39.47 39.47 1.34 2.06 1.43 16.6 179.1 0.0 0.0 47.84
2019-12-14 05:30 39.96 81.4 34.72 39.96 39.96 1.88 2.42 1.79 17.5 210.3 0.0 0.0 47.82
2019-12-14 05:35 39.34 82.0 34.31 39.34 39.34 1.88 2.42 1.79 7.5 220.4 0.0 0.0 47.77
2019-12-14 05:40 38.93 83.0 34.21 38.93 38.93 1.88 2.42 1.9 8.1 208.7 0.0 0.0 47.73
2019-12-14 05:45 38.62 83.8 34.15 38.62 38.62 1.34 2.77 1.59 22.3 197.3 0.0 0.0 47.7
2019-12-14 05:50 38.75 83.8 34.27 38.75 38.75 0.0 2.06 1.05 42.2 188.2 0.0 0.0 47.64
2019-12-14 05:55 38.32 85.1 34.23 38.32 38.32 0.0 0.0 0.0 0.0 0.0 0.0 0.0 47.61
2019-12-14 06:00 38.32 85.9 34.47 38.32 38.32 0.98 1.16 0.29 35.3 188.3 0.0 0.0 47.57
2019-12-14 06:05 38.07 86.1 34.28 38.07 38.07 0.0 1.7 0.56 18.2 97.1 0.0 0.0 47.52
2019-12-14 06:10 38.07 85.9 34.22 38.07 38.07 2.06 2.59 1.25 33.8 185.7 0.0 0.0 47.46
2019-12-14 06:15 38.07 86.2 34.31 38.07 38.07 0.0 2.24 1.34 15.1 151.3 0.0 0.0 47.43
2019-12-14 06:20 38.19 86.6 34.55 38.19 38.19 0.0 1.52 0.47 36.6 320.2 0.0 0.0 47.39
2019-12-14 06:25 37.96 86.3 34.23 37.96 37.96 0.0 0.0 0.0 0.0 0.0 0.0 0.0 47.34
2019-12-14 06:30 38.19 86.3 34.46 38.19 38.19 1.88 2.06 0.85 11.0 182.5 0.0 0.0 47.28
2019-12-14 06:35 38.01 86.1 34.23 38.01 38.01 1.88 2.59 1.99 10.2 196.9 0.0 0.0 47.25
2019-12-14 06:40 37.78 87.0 34.26 37.78 37.78 0.0 1.88 0.92 19.3 193.1 0.0 0.0 47.21
2019-12-14 06:45 37.89 86.7 34.28 37.89 37.89 0.0 0.98 0.09 0.5 48.5 0.0 0.0 47.17
2019-12-14 06:50 38.32 86.6 34.67 38.32 38.32 1.52 1.52 0.22 4.8 238.6 0.0 0.0 47.14
2019-12-14 06:55 38.5 85.6 34.56 38.5 38.5 0.0 1.7 0.83 31.1 176.1 0.0 0.001 47.08
2019-12-14 07:00 38.55 84.0 34.14 38.55 38.55 0.0 2.06 0.51 9.6 234.8 0.0 0.001 47.05
2019-12-14 07:05 38.75 83.6 34.21 38.75 38.75 2.06 2.42 1.01 7.2 301.5 0.0 0.002 47.01
2019-12-14 07:10 39.06 83.3 34.42 39.06 39.06 1.34 2.06 1.48 48.8 279.9 0.0 0.002 46.96
2019-12-14 07:15 39.65 80.9 34.27 39.65 39.65 1.52 3.13 1.5 33.7 173.2 0.0 0.003 46.92
2019-12-14 07:20 40.08 79.65 34.3 40.08 40.08 1.16 1.16 0.27 48.5 220.7 0.0 0.005 46.89
2019-12-14 07:25 40.57 77.99 34.24 40.57 40.57 0.98 2.24 0.96 69.3 29.7 0.0 0.011 46.85
2019-12-14 07:30 41.97 74.41 34.43 41.97 41.97 1.7 2.24 1.5 11.3 100.2 0.0 0.012 46.8
2019-12-14 07:35 42.15 74.37 34.59 42.15 42.15 0.98 3.49 1.97 85.8 253.6 0.0 0.019 46.74
2019-12-14 07:40 43.25 71.91 34.8 43.25 43.25 1.16 1.7 1.16 47.2 91.4 0.0 0.024 46.71
2019-12-14 07:45 43.48 70.21 34.42 43.48 43.48 1.7 4.92 1.99 17.6 222.0 0.0 0.029 46.67
2019-12-14 07:50 43.48 71.29 34.81 43.48 43.48 2.95 3.85 2.26 20.7 208.8 0.0 0.034 46.63
2019-12-14 07:55 43.41 72.2 35.06 43.41 43.41 2.42 3.13 1.95 28.0 189.0 0.0 0.038 46.6
2019-12-14 08:00 43.54 70.81 34.69 43.54 43.54 2.95 3.49 2.04 49.1 221.4 0.0 0.042 46.56
2019-12-14 08:05 44.92 69.69 35.62 44.92 44.92 0.0 2.59 0.51 3.9 196.0 0.0 0.046 46.53
2019-12-14 08:10 45.84 66.38 35.27 45.84 45.84 1.88 2.24 1.28 28.2 127.1 0.0 0.05 46.49
2019-12-14 08:15 46.69 65.94 35.91 46.69 46.69 0.81 2.06 1.43 21.6 121.5 0.0 0.054 46.45
2019-12-14 08:20 47.17 66.88 36.73 47.17 47.17 2.42 3.13 2.08 47.7 155.4 0.0 0.059 46.42
2019-12-14 08:25 47.84 65.05 36.66 47.84 47.84 0.0 3.49 1.66 34.1 232.7 0.0 0.063 46.4
2019-12-14 08:30 48.25 63.29 36.36 48.25 48.25 0.81 3.13 1.41 59.3 252.2 0.0 0.067 46.38
2019-12-14 08:35 49.71 60.14 36.45 49.71 49.71 0.98 2.77 1.25 59.0 175.4 0.0 0.071 46.35
2019-12-14 08:40 50.07 61.05 37.17 50.07 50.07 2.42 3.13 1.88 34.7 233.0 0.0 0.076 46.33
2019-12-14 08:45 49.57 60.0 36.25 49.05 49.57 3.13 5.28 3.22 30.3 178.9 0.0 0.08 46.33
2019-12-14 08:50 49.77 60.98 36.85 49.77 49.77 2.24 3.67 2.51 21.6 189.5 0.0 0.084 46.31
2019-12-14 08:55 50.97 59.39 37.31 50.97 50.97 1.34 3.85 2.39 25.5 146.5 0.0 0.088 46.29
2019-12-14 09:00 51.75 59.28 38.0 51.75 51.75 3.49 3.49 1.77 17.1 191.1 0.0 0.092 46.29
2019-12-14 09:05 53.02 55.09 37.33 53.02 53.02 1.88 3.85 2.04 22.8 149.4 0.0 0.096 46.31
2019-12-14 09:10 54.48 47.86 35.11 54.48 54.48 2.95 4.21 2.44 21.1 122.7 0.0 0.1 46.29
2019-12-14 09:15 55.33 46.78 35.31 55.33 55.33 2.24 3.67 2.35 22.0 143.8 0.0 0.104 46.31
2019-12-14 09:20 55.63 45.83 35.08 55.63 55.63 2.06 4.03 2.75 21.3 144.5 0.0 0.108 46.33
2019-12-14 09:25 55.69 45.63 35.02 55.69 55.69 3.67 6.0 3.69 21.2 110.8 0.0 0.111 46.36
2019-12-14 09:30 55.87 47.52 36.21 55.87 55.87 1.7 5.1 2.89 46.0 126.5 0.0 0.115 46.4
2019-12-14 09:35 56.28 44.74 35.06 56.28 56.28 3.31 4.38 2.75 31.6 199.9 0.0 0.118 46.42
2019-12-14 09:40 56.41 47.04 36.44 56.41 56.41 0.0 3.85 1.5 30.1 223.0 0.0 0.122 46.47
2019-12-14 09:45 57.0 45.42 36.1 57.0 57.0 1.52 2.59 1.83 33.1 187.4 0.0 0.125 46.53
2019-12-14 09:50 57.24 47.4 37.4 57.24 57.24 2.59 2.77 2.04 32.5 193.3 0.0 0.128 46.56
2019-12-14 09:55 56.26 52.43 39.07 56.26 56.26 3.67 4.74 3.13 18.6 210.2 0.0 0.131 46.62
2019-12-14 10:00 56.32 51.25 38.54 56.32 56.32 1.88 4.38 2.68 42.2 204.8 0.0 0.135 46.69
2019-12-14 10:05 58.82 40.18 34.65 58.82 58.82 8.3 9.22 6.24 18.7 237.8 0.0 0.138 46.76
2019-12-14 10:10 59.59 39.84 35.14 59.59 59.59 4.92 9.22 6.44 22.4 236.7 0.0 0.141 46.85
2019-12-14 10:15 60.21 38.42 34.77 60.21 60.21 6.89 6.89 5.06 21.2 235.9 0.0 0.143 46.92
2019-12-14 10:20 60.39 39.06 35.35 60.39 60.39 3.67 9.22 6.0 26.1 230.0 0.0 0.146 47.01
2019-12-14 10:25 60.8 39.46 35.98 60.8 60.8 4.92 7.61 4.61 21.1 239.9 0.0 0.148 47.1
2019-12-14 10:30 61.11 38.11 35.37 61.11 61.11 5.46 6.17 4.45 21.6 234.8 0.0 0.151 47.19
2019-12-14 10:35 61.05 37.74 35.08 61.05 61.05 6.0 6.53 4.85 25.9 220.8 0.0 0.152 47.3
2019-12-14 10:40 61.29 40.0 36.76 61.29 61.29 2.42 6.89 4.76 28.8 201.1 0.0 0.155 47.43
2019-12-14 10:45 61.65 39.02 36.45 61.65 61.65 3.67 6.35 3.96 17.4 216.4 0.0 0.157 47.53
2019-12-14 10:50 62.19 36.62 35.33 62.19 62.19 3.85 5.82 3.94 17.6 240.6 0.0 0.159 47.66
2019-12-14 10:55 62.67 36.86 35.92 62.67 62.67 4.56 5.82 3.04 36.1 218.0 0.0 0.161 47.77
2019-12-14 11:00 63.27 38.17 37.34 63.27 63.27 1.7 4.38 1.97 64.5 204.7 0.0 0.162 47.89
2019-12-14 11:05 63.5 35.81 35.93 63.5 63.5 3.85 4.56 3.02 45.1 209.9 0.0 0.164 48.0
2019-12-14 11:10 63.32 36.44 36.21 63.32 63.32 3.85 6.53 4.03 24.5 203.7 0.0 0.165 48.15
2019-12-14 11:15 63.63 35.33 35.7 63.63 63.63 3.13 5.82 3.71 25.3 201.4 0.0 0.167 48.27
2019-12-14 11:20 64.04 35.3 36.04 64.04 64.04 3.13 5.64 2.98 25.3 219.1 0.0 0.168 48.42
2019-12-14 11:25 64.78 34.01 35.76 64.78 64.78 3.85 3.85 2.08 73.4 174.6 0.0 0.169 48.56
2019-12-14 11:30 64.53 33.98 35.51 64.53 64.53 5.46 7.25 4.09 84.0 236.2 0.0 0.17 48.7
2019-12-14 11:35 65.39 32.5 35.15 65.39 65.39 4.38 8.86 5.19 37.1 228.3 0.0 0.171 48.85
2019-12-14 11:40 65.32 31.45 34.26 65.32 65.32 8.86 12.59 7.94 23.4 247.2 0.0 0.171 48.99
2019-12-14 11:45 65.14 31.69 34.29 65.14 65.14 10.45 12.24 9.31 17.5 248.3 0.0 0.172 49.15
2019-12-14 11:50 64.78 32.06 34.27 64.78 64.78 8.3 14.38 10.94 15.5 240.2 0.0 0.172 49.3
2019-12-14 11:55 65.44 32.73 35.37 65.44 65.44 6.17 13.13 8.81 16.9 235.9 0.0 0.172 49.48
2019-12-14 12:00 65.57 31.35 34.4 65.57 65.57 7.43 11.34 8.17 19.9 240.9 0.0 0.173 49.62
2019-12-14 12:05 65.68 31.28 34.44 65.68 65.68 8.3 16.35 9.13 29.6 239.8 0.0 0.173 49.77
2019-12-14 12:10 65.14 30.77 33.56 65.14 65.14 10.09 16.53 11.72 13.7 251.4 0.0 0.173 49.95
2019-12-14 12:15 66.16 30.67 34.37 66.16 66.16 8.68 12.06 8.05 15.1 246.1 0.0 0.173 50.09
2019-12-14 12:20 65.8 31.25 34.52 65.8 65.8 5.82 13.13 8.32 18.1 246.9 0.0 0.173 50.23
2019-12-14 12:25 66.34 29.89 33.88 66.34 66.34 8.3 12.77 7.94 18.7 243.6 0.0 0.172 50.4
2019-12-14 12:30 66.4 30.13 34.12 66.4 66.4 12.06 15.28 10.56 13.5 248.8 0.0 0.172 50.54
2019-12-14 12:35 66.4 30.43 34.37 66.4 66.4 10.98 12.77 9.87 18.4 242.9 0.0 0.171 50.68
2019-12-14 12:40 66.22 30.9 34.6 66.22 66.22 6.53 15.1 9.55 16.2 237.3 0.0 0.17 50.83
2019-12-14 12:45 66.81 30.73 34.98 66.81 66.81 8.86 13.13 9.51 15.9 244.0 0.0 0.169 50.97
2019-12-14 12:50 67.35 29.92 34.78 67.35 67.35 8.48 12.06 8.72 20.9 250.1 0.0 0.168 51.12
2019-12-14 12:55 66.43 30.53 34.49 66.43 66.43 10.09 15.28 10.92 17.1 252.0 0.0 0.167 51.28
2019-12-14 13:00 67.23 29.52 34.33 67.23 67.23 10.09 13.31 9.57 21.4 240.3 0.0 0.166 51.44
2019-12-14 13:05 66.69 29.65 33.97 66.69 66.69 10.8 15.1 10.45 14.8 243.3 0.0 0.164 51.58
2019-12-14 13:10 66.92 29.41 33.97 66.92 66.92 8.86 15.28 11.1 19.4 243.9 0.0 0.163 51.73
2019-12-14 13:15 67.17 29.85 34.56 67.17 67.17 6.71 16.89 8.99 23.4 241.3 0.0 0.161 51.87
2019-12-14 13:20 67.59 28.71 33.94 67.59 67.59 9.91 13.85 9.33 21.0 235.5 0.0 0.159 52.02
2019-12-14 13:25 67.71 28.5 33.87 67.71 67.71 7.07 13.49 9.13 15.9 246.4 0.0 0.157 52.16
2019-12-14 13:30 67.71 28.37 33.75 67.71 67.71 8.3 13.13 9.51 18.9 242.6 0.0 0.156 52.3
2019-12-14 13:35 67.96 27.26 32.97 67.96 67.96 13.31 14.2 9.55 18.1 250.8 0.0 0.153 52.45
2019-12-14 13:40 67.59 27.36 32.74 67.59 67.59 9.4 18.86 11.52 24.1 243.4 0.0 0.151 52.59
2019-12-14 13:45 67.66 27.12 32.58 67.66 67.66 10.8 17.25 10.27 24.1 255.1 0.0 0.149 52.74
2019-12-14 13:50 67.59 26.72 32.15 67.59 67.59 12.59 13.31 10.13 18.3 248.8 0.0 0.146 52.88
2019-12-14 13:55 67.71 26.85 32.38 67.71 67.71 15.28 16.71 11.25 18.4 255.1 0.0 0.144 53.02
2019-12-14 14:00 67.48 27.63 32.89 67.48 67.48 5.1 14.92 10.94 17.9 234.6 0.0 0.141 53.17
2019-12-14 14:05 68.38 26.01 32.16 68.38 68.38 9.22 11.34 8.32 21.4 242.1 0.0 0.138 53.33
2019-12-14 14:10 67.89 25.91 31.65 67.89 67.89 11.34 15.64 10.22 15.7 235.3 0.0 0.135 53.46
2019-12-14 14:15 68.07 26.28 32.15 68.07 68.07 13.31 16.35 10.69 16.9 243.9 0.0 0.132 53.58
2019-12-14 14:20 68.2 25.74 31.75 68.2 68.2 9.04 16.35 11.72 16.6 245.8 0.0 0.13 53.73
2019-12-14 14:25 68.14 24.56 30.54 68.14 68.14 15.1 15.82 9.87 17.3 249.9 0.0 0.099 53.85
2019-12-14 14:30 68.5 24.79 31.08 68.5 68.5 8.3 14.92 10.58 22.0 244.3 0.0 0.127 53.98
2019-12-14 14:35 69.22 24.59 31.49 69.22 69.22 10.63 14.92 9.69 21.4 251.1 0.0 0.149 54.09
2019-12-14 14:40 68.45 25.23 31.47 68.45 68.45 9.22 13.31 9.06 22.3 250.1 0.0 0.147 54.23
2019-12-14 14:45 69.04 23.92 30.65 69.04 69.04 12.24 13.85 8.81 21.1 255.1 0.0 0.143 54.34
2019-12-14 14:50 68.5 24.66 30.95 68.5 68.5 12.59 14.74 11.27 21.6 254.9 0.0 0.143 54.46
2019-12-14 14:55 68.68 25.06 31.5 68.68 68.68 12.42 13.31 9.57 22.8 249.8 0.0 0.139 54.57
2019-12-14 15:00 68.56 25.74 32.05 68.56 68.56 8.3 15.82 9.89 23.3 233.9 0.0 0.132 54.68
2019-12-14 15:05 68.56 25.77 32.08 68.56 68.56 10.27 14.56 10.6 20.9 244.8 0.0 0.125 54.77
2019-12-14 15:10 68.27 25.81 31.88 68.27 68.27 11.88 16.89 11.92 12.4 245.0 0.0 0.123 54.86
2019-12-14 15:15 68.38 25.3 31.47 68.38 68.38 8.68 15.99 10.83 17.0 249.0 0.0 0.116 54.95
2019-12-14 15:20 68.38 25.33 31.5 68.38 68.38 8.86 12.24 9.42 22.4 256.7 0.0 0.114 55.04
2019-12-14 15:25 68.68 24.83 31.27 68.68 68.68 9.04 12.06 8.81 21.3 254.9 0.0 0.11 55.11
2019-12-14 15:30 68.81 25.81 32.34 68.81 68.81 7.78 14.2 9.82 17.0 243.5 0.0 0.105 55.22
2019-12-14 15:35 68.56 26.68 32.95 68.56 68.56 7.96 12.95 9.17 16.2 249.9 0.0 0.096 55.27
2019-12-14 15:40 68.45 27.42 33.54 68.45 68.45 5.1 13.49 8.52 17.7 250.9 0.0 0.087 55.36
2019-12-14 15:45 68.02 26.85 32.64 68.02 68.02 8.12 15.1 9.13 22.1 248.4 0.0 0.079 55.45
2019-12-14 15:50 67.84 26.99 32.62 67.84 67.84 12.24 14.74 10.65 20.2 249.7 0.0 0.07 55.53
2019-12-14 15:55 67.84 26.95 32.58 67.84 67.84 9.04 13.13 9.51 11.7 250.4 0.0 0.061 55.6
2019-12-14 16:00 68.07 27.36 33.16 68.07 68.07 6.17 9.91 6.26 19.3 249.4 0.0 0.053 55.67
2019-12-14 16:05 67.71 27.76 33.21 67.71 67.71 4.92 10.45 7.2 21.8 257.6 0.0 0.048 55.72
2019-12-14 16:10 67.41 28.03 33.19 67.41 67.41 5.64 10.98 5.64 23.4 255.1 0.0 0.043 55.8
2019-12-14 16:15 67.3 28.23 33.27 67.3 67.3 5.46 10.09 6.82 25.4 259.4 0.0 0.038 55.87
2019-12-14 16:20 66.99 28.61 33.34 66.99 66.99 2.24 8.12 4.81 25.2 262.0 0.0 0.034 55.92
2019-12-14 16:25 66.81 29.31 33.79 66.81 66.81 6.17 7.61 4.32 22.4 272.2 0.0 0.028 55.99
2019-12-14 16:30 66.51 29.72 33.87 66.51 66.51 2.06 7.78 4.59 26.8 269.7 0.0 0.023 56.05
2019-12-14 16:35 66.51 29.42 33.62 66.51 66.51 3.67 6.35 3.4 38.3 270.0 0.0 0.018 56.1
2019-12-14 16:40 66.22 29.42 33.37 66.22 66.22 6.89 8.48 4.81 29.2 256.6 0.0 0.014 56.14
2019-12-14 16:45 65.8 30.33 33.77 65.8 65.8 3.31 9.73 5.7 15.0 250.3 0.0 0.01 56.17
2019-12-14 16:50 65.14 31.58 34.21 65.14 65.14 2.95 9.04 4.9 22.7 258.0 0.0 0.004 56.23
2019-12-14 16:55 64.53 32.09 34.07 64.53 64.53 2.06 6.35 4.05 27.9 273.4 0.0 0.003 56.26
2019-12-14 17:00 64.53 31.69 33.76 64.53 64.53 3.85 8.12 4.74 26.2 251.5 0.0 0.002 56.28
2019-12-14 17:05 64.35 32.7 34.39 64.35 64.35 0.81 4.74 2.37 30.9 260.1 0.0 0.001 56.32
2019-12-14 17:10 63.99 33.58 34.74 63.99 63.99 1.16 4.56 2.57 25.6 284.9 0.0 0.001 56.32

Data is courtesy of the NM Climate Center. DO NOT USE IN LEGAL PROCEEDINGS.